sensor_id;sensor_type;location;lat;lon;timestamp;pressure;altitude;pressure_sealevel;temperature;humidity
77192;BME280;66172;48.526;8.078;2023-03-01T00:00:37;100288.91;;;-2.17;75.42
77192;BME280;66172;48.526;8.078;2023-03-01T00:03:03;100286.94;;;-2.21;75.78
77192;BME280;66172;48.526;8.078;2023-03-01T00:05:29;100278.25;;;-2.17;75.62
77192;BME280;66172;48.526;8.078;2023-03-01T00:07:55;100283.56;;;-2.17;75.60
77192;BME280;66172;48.526;8.078;2023-03-01T00:10:21;100284.06;;;-2.31;76.68
77192;BME280;66172;48.526;8.078;2023-03-01T00:12:47;100284.19;;;-2.38;76.97
77192;BME280;66172;48.526;8.078;2023-03-01T00:15:13;100289.28;;;-2.36;76.65
77192;BME280;66172;48.526;8.078;2023-03-01T00:17:39;100284.44;;;-2.39;76.64
77192;BME280;66172;48.526;8.078;2023-03-01T00:20:05;100282.81;;;-2.40;76.44
77192;BME280;66172;48.526;8.078;2023-03-01T00:22:36;100280.72;;;-2.38;76.70
77192;BME280;66172;48.526;8.078;2023-03-01T00:25:03;100285.00;;;-2.37;76.52
77192;BME280;66172;48.526;8.078;2023-03-01T00:27:29;100289.72;;;-2.28;75.99
77192;BME280;66172;48.526;8.078;2023-03-01T00:29:55;100276.66;;;-2.41;76.55
77192;BME280;66172;48.526;8.078;2023-03-01T00:32:21;100276.19;;;-2.49;76.90
77192;BME280;66172;48.526;8.078;2023-03-01T00:34:47;100287.66;;;-2.49;77.15
77192;BME280;66172;48.526;8.078;2023-03-01T00:37:21;100283.16;;;-2.37;76.95
77192;BME280;66172;48.526;8.078;2023-03-01T00:39:47;100284.31;;;-2.33;76.59
77192;BME280;66172;48.526;8.078;2023-03-01T00:42:13;100285.56;;;-2.35;76.71
77192;BME280;66172;48.526;8.078;2023-03-01T00:44:39;100290.44;;;-2.44;76.46
77192;BME280;66172;48.526;8.078;2023-03-01T00:47:05;100277.47;;;-2.52;77.22
77192;BME280;66172;48.526;8.078;2023-03-01T00:49:31;100268.00;;;-2.36;76.17
77192;BME280;66172;48.526;8.078;2023-03-01T00:51:57;100279.31;;;-2.29;75.92
77192;BME280;66172;48.526;8.078;2023-03-01T00:54:23;100269.22;;;-2.27;75.80
77192;BME280;66172;48.526;8.078;2023-03-01T00:56:48;100264.94;;;-2.28;76.58
77192;BME280;66172;48.526;8.078;2023-03-01T00:59:14;100268.56;;;-2.46;76.86
77192;BME280;66172;48.526;8.078;2023-03-01T01:01:40;100266.50;;;-2.44;76.47
77192;BME280;66172;48.526;8.078;2023-03-01T01:04:09;100273.88;;;-2.46;76.12
77192;BME280;66172;48.526;8.078;2023-03-01T01:06:39;100264.97;;;-2.40;76.30
77192;BME280;66172;48.526;8.078;2023-03-01T01:09:06;100266.81;;;-2.29;75.93
77192;BME280;66172;48.526;8.078;2023-03-01T01:11:32;100263.66;;;-2.14;75.33
77192;BME280;66172;48.526;8.078;2023-03-01T01:14:00;100266.56;;;-2.27;75.85
77192;BME280;66172;48.526;8.078;2023-03-01T01:16:27;100254.28;;;-2.17;75.84
77192;BME280;66172;48.526;8.078;2023-03-01T01:18:54;100259.84;;;-2.18;75.77
77192;BME280;66172;48.526;8.078;2023-03-01T01:21:22;100260.56;;;-2.23;75.89
77192;BME280;66172;48.526;8.078;2023-03-01T01:23:50;100251.97;;;-2.25;75.70
77192;BME280;66172;48.526;8.078;2023-03-01T01:26:19;100257.28;;;-2.25;75.30
77192;BME280;66172;48.526;8.078;2023-03-01T01:28:46;100257.88;;;-2.23;75.09
77192;BME280;66172;48.526;8.078;2023-03-01T01:31:12;100249.34;;;-2.48;76.20
77192;BME280;66172;48.526;8.078;2023-03-01T01:33:38;100247.38;;;-2.53;76.50
77192;BME280;66172;48.526;8.078;2023-03-01T01:36:05;100246.91;;;-2.38;75.41
77192;BME280;66172;48.526;8.078;2023-03-01T01:38:31;100245.78;;;-2.54;76.05
77192;BME280;66172;48.526;8.078;2023-03-01T01:40:57;100237.41;;;-2.45;76.16
77192;BME280;66172;48.526;8.078;2023-03-01T01:43:30;100232.91;;;-2.45;75.99
77192;BME280;66172;48.526;8.078;2023-03-01T01:46:13;100224.84;;;-2.50;76.65
77192;BME280;66172;48.526;8.078;2023-03-01T01:48:52;100232.13;;;-2.69;77.21
77192;BME280;66172;48.526;8.078;2023-03-01T01:51:23;100226.34;;;-2.66;77.03
77192;BME280;66172;48.526;8.078;2023-03-01T01:53:54;100230.75;;;-2.71;77.33
77192;BME280;66172;48.526;8.078;2023-03-01T01:56:24;100228.66;;;-2.69;77.15
77192;BME280;66172;48.526;8.078;2023-03-01T01:58:51;100215.81;;;-2.61;76.87
77192;BME280;66172;48.526;8.078;2023-03-01T02:01:17;100220.53;;;-2.51;76.72
77192;BME280;66172;48.526;8.078;2023-03-01T02:03:46;100225.97;;;-2.46;76.73
77192;BME280;66172;48.526;8.078;2023-03-01T02:06:21;100216.16;;;-2.57;76.42
77192;BME280;66172;48.526;8.078;2023-03-01T02:08:49;100219.94;;;-2.53;77.01
77192;BME280;66172;48.526;8.078;2023-03-01T02:11:18;100210.03;;;-2.58;76.65
77192;BME280;66172;48.526;8.078;2023-03-01T02:13:44;100217.19;;;-2.46;76.34
77192;BME280;66172;48.526;8.078;2023-03-01T02:16:14;100211.66;;;-2.68;76.87
77192;BME280;66172;48.526;8.078;2023-03-01T02:18:41;100210.97;;;-2.87;77.29
77192;BME280;66172;48.526;8.078;2023-03-01T02:23:45;100210.63;;;-2.79;77.82
77192;BME280;66172;48.526;8.078;2023-03-01T02:26:34;100214.31;;;-3.03;78.10
77192;BME280;66172;48.526;8.078;2023-03-01T02:29:02;100209.66;;;-3.19;78.22
77192;BME280;66172;48.526;8.078;2023-03-01T02:31:28;100204.47;;;-3.26;78.75
77192;BME280;66172;48.526;8.078;2023-03-01T02:34:12;100192.78;;;-3.36;78.84
77192;BME280;66172;48.526;8.078;2023-03-01T02:36:43;100192.56;;;-3.35;79.55
77192;BME280;66172;48.526;8.078;2023-03-01T02:39:14;100199.25;;;-3.32;78.98
77192;BME280;66172;48.526;8.078;2023-03-01T02:41:47;100195.91;;;-3.16;78.00
77192;BME280;66172;48.526;8.078;2023-03-01T02:44:13;100186.56;;;-3.07;78.55
77192;BME280;66172;48.526;8.078;2023-03-01T02:46:45;100181.13;;;-2.89;77.60
77192;BME280;66172;48.526;8.078;2023-03-01T02:49:38;100178.22;;;-2.76;76.51
77192;BME280;66172;48.526;8.078;2023-03-01T02:52:39;100182.03;;;-2.72;76.48
77192;BME280;66172;48.526;8.078;2023-03-01T02:55:11;100178.66;;;-2.67;76.61
77192;BME280;66172;48.526;8.078;2023-03-01T02:57:40;100172.88;;;-2.64;75.52
77192;BME280;66172;48.526;8.078;2023-03-01T03:00:11;100167.34;;;-2.86;76.95
77192;BME280;66172;48.526;8.078;2023-03-01T03:02:46;100156.94;;;-2.76;77.00
77192;BME280;66172;48.526;8.078;2023-03-01T03:05:15;100158.09;;;-2.72;76.05
77192;BME280;66172;48.526;8.078;2023-03-01T03:07:44;100162.38;;;-2.82;76.74
77192;BME280;66172;48.526;8.078;2023-03-01T03:10:14;100156.47;;;-2.84;77.21
77192;BME280;66172;48.526;8.078;2023-03-01T03:12:41;100165.47;;;-2.74;77.07
77192;BME280;66172;48.526;8.078;2023-03-01T03:15:08;100163.16;;;-2.70;76.30
77192;BME280;66172;48.526;8.078;2023-03-01T03:17:39;100155.78;;;-2.68;76.43
77192;BME280;66172;48.526;8.078;2023-03-01T03:20:07;100149.03;;;-2.59;76.30
77192;BME280;66172;48.526;8.078;2023-03-01T03:22:38;100145.31;;;-2.58;76.63
77192;BME280;66172;48.526;8.078;2023-03-01T03:25:06;100151.47;;;-2.58;76.16
77192;BME280;66172;48.526;8.078;2023-03-01T03:27:40;100152.38;;;-2.52;75.91
77192;BME280;66172;48.526;8.078;2023-03-01T03:30:09;100154.47;;;-2.54;76.23
77192;BME280;66172;48.526;8.078;2023-03-01T03:32:36;100158.38;;;-2.57;76.62
77192;BME280;66172;48.526;8.078;2023-03-01T03:35:03;100140.19;;;-2.48;75.50
77192;BME280;66172;48.526;8.078;2023-03-01T03:37:36;100148.56;;;-2.56;75.95
77192;BME280;66172;48.526;8.078;2023-03-01T03:40:21;100153.31;;;-2.70;76.98
77192;BME280;66172;48.526;8.078;2023-03-01T03:42:46;100138.63;;;-2.61;76.48
77192;BME280;66172;48.526;8.078;2023-03-01T03:45:14;100140.16;;;-2.76;77.21
77192;BME280;66172;48.526;8.078;2023-03-01T03:47:41;100140.75;;;-2.86;77.65
77192;BME280;66172;48.526;8.078;2023-03-01T03:50:09;100140.50;;;-2.84;78.14
77192;BME280;66172;48.526;8.078;2023-03-01T03:52:35;100139.00;;;-2.80;78.24
77192;BME280;66172;48.526;8.078;2023-03-01T03:55:00;100136.13;;;-2.79;77.51
77192;BME280;66172;48.526;8.078;2023-03-01T03:57:26;100138.56;;;-3.12;79.02
77192;BME280;66172;48.526;8.078;2023-03-01T03:59:52;100124.47;;;-3.01;78.92
77192;BME280;66172;48.526;8.078;2023-03-01T04:02:18;100128.75;;;-3.00;78.11
77192;BME280;66172;48.526;8.078;2023-03-01T04:04:48;100128.03;;;-2.95;78.22
77192;BME280;66172;48.526;8.078;2023-03-01T04:07:17;100126.44;;;-3.20;78.07
77192;BME280;66172;48.526;8.078;2023-03-01T04:09:43;100127.84;;;-3.17;78.25
77192;BME280;66172;48.526;8.078;2023-03-01T04:12:10;100125.19;;;-3.17;78.64
77192;BME280;66172;48.526;8.078;2023-03-01T04:14:36;100122.59;;;-3.00;78.08
77192;BME280;66172;48.526;8.078;2023-03-01T04:17:02;100131.88;;;-3.03;77.70
77192;BME280;66172;48.526;8.078;2023-03-01T04:19:31;100135.31;;;-2.91;77.83
77192;BME280;66172;48.526;8.078;2023-03-01T04:22:02;100131.84;;;-2.80;77.75
77192;BME280;66172;48.526;8.078;2023-03-01T04:24:35;100134.28;;;-2.78;77.75
77192;BME280;66172;48.526;8.078;2023-03-01T04:27:01;100124.78;;;-2.86;77.63
77192;BME280;66172;48.526;8.078;2023-03-01T04:29:28;100117.03;;;-2.76;77.78
77192;BME280;66172;48.526;8.078;2023-03-01T04:31:53;100110.41;;;-2.73;77.75
77192;BME280;66172;48.526;8.078;2023-03-01T04:34:19;100124.94;;;-2.92;77.45
77192;BME280;66172;48.526;8.078;2023-03-01T04:36:45;100111.28;;;-3.08;78.20
77192;BME280;66172;48.526;8.078;2023-03-01T04:39:11;100105.38;;;-2.98;78.00
77192;BME280;66172;48.526;8.078;2023-03-01T04:41:40;100119.59;;;-2.92;78.65
77192;BME280;66172;48.526;8.078;2023-03-01T04:44:06;100118.19;;;-2.83;78.53
77192;BME280;66172;48.526;8.078;2023-03-01T04:46:32;100109.13;;;-2.71;77.84
77192;BME280;66172;48.526;8.078;2023-03-01T04:48:58;100102.16;;;-2.60;77.27
77192;BME280;66172;48.526;8.078;2023-03-01T04:51:24;100104.38;;;-2.69;77.23
77192;BME280;66172;48.526;8.078;2023-03-01T04:53:50;100109.66;;;-2.97;78.21
77192;BME280;66172;48.526;8.078;2023-03-01T04:56:16;100109.19;;;-2.94;78.78
77192;BME280;66172;48.526;8.078;2023-03-01T04:58:44;100105.09;;;-2.85;78.10
77192;BME280;66172;48.526;8.078;2023-03-01T05:01:20;100103.09;;;-2.66;77.29
77192;BME280;66172;48.526;8.078;2023-03-01T05:03:48;100107.38;;;-2.65;77.60
77192;BME280;66172;48.526;8.078;2023-03-01T05:06:15;100105.88;;;-2.61;78.07
77192;BME280;66172;48.526;8.078;2023-03-01T05:08:42;100099.94;;;-2.52;77.66
77192;BME280;66172;48.526;8.078;2023-03-01T05:11:09;100098.59;;;-2.37;77.63
77192;BME280;66172;48.526;8.078;2023-03-01T05:13:36;100099.78;;;-2.45;77.84
77192;BME280;66172;48.526;8.078;2023-03-01T05:16:03;100108.56;;;-2.33;76.58
77192;BME280;66172;48.526;8.078;2023-03-01T05:18:31;100096.50;;;-2.35;77.14
77192;BME280;66172;48.526;8.078;2023-03-01T05:21:09;100095.94;;;-2.37;77.50
77192;BME280;66172;48.526;8.078;2023-03-01T05:23:35;100086.44;;;-2.33;77.20
77192;BME280;66172;48.526;8.078;2023-03-01T05:26:03;100092.09;;;-2.30;77.61
77192;BME280;66172;48.526;8.078;2023-03-01T05:28:30;100099.13;;;-2.52;78.06
77192;BME280;66172;48.526;8.078;2023-03-01T05:30:56;100092.50;;;-2.49;78.14
77192;BME280;66172;48.526;8.078;2023-03-01T05:33:23;100100.06;;;-2.46;78.41
77192;BME280;66172;48.526;8.078;2023-03-01T05:35:50;100098.28;;;-2.41;78.48
77192;BME280;66172;48.526;8.078;2023-03-01T05:38:17;100102.41;;;-2.33;77.81
77192;BME280;66172;48.526;8.078;2023-03-01T05:40:45;100107.13;;;-2.24;77.64
77192;BME280;66172;48.526;8.078;2023-03-01T05:43:14;100112.03;;;-2.32;77.74
77192;BME280;66172;48.526;8.078;2023-03-01T05:45:40;100101.72;;;-2.29;77.03
77192;BME280;66172;48.526;8.078;2023-03-01T05:48:08;100102.59;;;-2.23;76.94
77192;BME280;66172;48.526;8.078;2023-03-01T05:50:40;100107.97;;;-2.35;77.43
77192;BME280;66172;48.526;8.078;2023-03-01T05:53:09;100092.66;;;-2.28;77.42
77192;BME280;66172;48.526;8.078;2023-03-01T05:55:36;100087.59;;;-2.29;77.87
77192;BME280;66172;48.526;8.078;2023-03-01T05:58:05;100099.06;;;-2.29;78.00
77192;BME280;66172;48.526;8.078;2023-03-01T06:00:32;100081.84;;;-2.21;77.56
77192;BME280;66172;48.526;8.078;2023-03-01T06:02:59;100104.38;;;-2.29;77.33
77192;BME280;66172;48.526;8.078;2023-03-01T06:05:26;100098.38;;;-2.36;77.50
77192;BME280;66172;48.526;8.078;2023-03-01T06:07:52;100096.47;;;-2.24;77.41
77192;BME280;66172;48.526;8.078;2023-03-01T06:10:20;100101.09;;;-2.19;77.25
77192;BME280;66172;48.526;8.078;2023-03-01T06:12:46;100102.56;;;-2.12;76.79
77192;BME280;66172;48.526;8.078;2023-03-01T06:15:14;100096.00;;;-2.04;76.64
77192;BME280;66172;48.526;8.078;2023-03-01T06:17:42;100095.88;;;-1.97;76.26
77192;BME280;66172;48.526;8.078;2023-03-01T06:20:17;100102.25;;;-1.98;76.59
77192;BME280;66172;48.526;8.078;2023-03-01T06:22:43;100111.44;;;-1.89;76.03
77192;BME280;66172;48.526;8.078;2023-03-01T06:25:11;100088.88;;;-1.87;76.22
77192;BME280;66172;48.526;8.078;2023-03-01T06:27:38;100097.31;;;-1.90;75.89
77192;BME280;66172;48.526;8.078;2023-03-01T06:30:04;100099.59;;;-1.82;75.94
77192;BME280;66172;48.526;8.078;2023-03-01T06:32:30;100094.03;;;-1.80;75.99
77192;BME280;66172;48.526;8.078;2023-03-01T06:34:57;100104.97;;;-1.93;75.96
77192;BME280;66172;48.526;8.078;2023-03-01T06:37:25;100107.75;;;-1.88;76.07
77192;BME280;66172;48.526;8.078;2023-03-01T06:39:51;100103.06;;;-1.81;75.66
77192;BME280;66172;48.526;8.078;2023-03-01T06:42:16;100093.28;;;-1.76;75.32
77192;BME280;66172;48.526;8.078;2023-03-01T06:44:44;100092.03;;;-1.73;75.43
77192;BME280;66172;48.526;8.078;2023-03-01T06:47:10;100088.28;;;-1.72;75.17
77192;BME280;66172;48.526;8.078;2023-03-01T06:49:35;100093.81;;;-1.62;75.01
77192;BME280;66172;48.526;8.078;2023-03-01T06:52:01;100083.09;;;-1.29;74.54
77192;BME280;66172;48.526;8.078;2023-03-01T06:54:28;100080.59;;;-0.97;72.67
77192;BME280;66172;48.526;8.078;2023-03-01T06:56:54;100079.78;;;-0.54;71.31
77192;BME280;66172;48.526;8.078;2023-03-01T06:59:20;100077.19;;;-0.71;71.28
77192;BME280;66172;48.526;8.078;2023-03-01T07:01:46;100091.03;;;-0.95;71.86
77192;BME280;66172;48.526;8.078;2023-03-01T07:04:12;100081.78;;;-1.10;73.24
77192;BME280;66172;48.526;8.078;2023-03-01T07:06:38;100088.88;;;-1.15;73.22
77192;BME280;66172;48.526;8.078;2023-03-01T07:09:04;100076.94;;;-1.13;73.27
77192;BME280;66172;48.526;8.078;2023-03-01T07:11:30;100070.28;;;-1.10;73.21
77192;BME280;66172;48.526;8.078;2023-03-01T07:13:56;100068.03;;;-1.18;73.46
77192;BME280;66172;48.526;8.078;2023-03-01T07:16:22;100075.03;;;-1.12;73.07
77192;BME280;66172;48.526;8.078;2023-03-01T07:18:48;100066.63;;;-1.04;72.85
77192;BME280;66172;48.526;8.078;2023-03-01T07:21:14;100073.09;;;-1.00;72.91
77192;BME280;66172;48.526;8.078;2023-03-01T07:23:40;100059.25;;;-0.75;72.21
77192;BME280;66172;48.526;8.078;2023-03-01T07:26:06;100051.25;;;0.37;69.23
77192;BME280;66172;48.526;8.078;2023-03-01T07:28:32;100063.41;;;1.84;65.19
77192;BME280;66172;48.526;8.078;2023-03-01T07:31:05;100055.91;;;4.29;57.73
77192;BME280;66172;48.526;8.078;2023-03-01T07:33:31;100048.63;;;6.28;51.80
77192;BME280;66172;48.526;8.078;2023-03-01T07:36:01;100056.88;;;6.36;49.78
77192;BME280;66172;48.526;8.078;2023-03-01T07:38:27;100048.16;;;5.27;51.60
77192;BME280;66172;48.526;8.078;2023-03-01T07:40:57;100061.69;;;4.75;52.84
77192;BME280;66172;48.526;8.078;2023-03-01T07:43:23;100061.34;;;4.19;53.88
77192;BME280;66172;48.526;8.078;2023-03-01T07:45:48;100066.38;;;3.47;56.26
77192;BME280;66172;48.526;8.078;2023-03-01T07:48:14;100071.66;;;3.03;57.49
77192;BME280;66172;48.526;8.078;2023-03-01T07:50:40;100054.69;;;3.13;58.04
77192;BME280;66172;48.526;8.078;2023-03-01T07:53:06;100044.59;;;4.27;56.63
77192;BME280;66172;48.526;8.078;2023-03-01T07:55:32;100051.19;;;5.44;53.30
77192;BME280;66172;48.526;8.078;2023-03-01T07:57:58;100043.22;;;6.60;50.50
77192;BME280;66172;48.526;8.078;2023-03-01T08:00:24;100037.56;;;7.02;48.88
77192;BME280;66172;48.526;8.078;2023-03-01T08:02:50;100035.16;;;6.41;48.75
77192;BME280;66172;48.526;8.078;2023-03-01T08:05:16;100044.97;;;6.97;48.02
77192;BME280;66172;48.526;8.078;2023-03-01T08:07:41;100047.34;;;6.71;48.86
77192;BME280;66172;48.526;8.078;2023-03-01T08:10:08;100049.84;;;5.42;50.52
77192;BME280;66172;48.526;8.078;2023-03-01T08:12:34;100041.28;;;4.92;53.11
77192;BME280;66172;48.526;8.078;2023-03-01T08:15:00;100039.63;;;4.10;54.86
77192;BME280;66172;48.526;8.078;2023-03-01T08:17:26;100031.25;;;4.74;53.15
77192;BME280;66172;48.526;8.078;2023-03-01T08:19:52;100043.16;;;4.39;54.41
77192;BME280;66172;48.526;8.078;2023-03-01T08:22:17;100040.72;;;3.70;56.75
77192;BME280;66172;48.526;8.078;2023-03-01T08:24:43;100051.91;;;3.38;57.81
77192;BME280;66172;48.526;8.078;2023-03-01T08:27:09;100044.06;;;3.47;58.09
77192;BME280;66172;48.526;8.078;2023-03-01T08:29:35;100044.94;;;3.32;57.73
77192;BME280;66172;48.526;8.078;2023-03-01T08:32:01;100050.19;;;2.93;58.95
77192;BME280;66172;48.526;8.078;2023-03-01T08:34:27;100049.91;;;3.05;58.88
77192;BME280;66172;48.526;8.078;2023-03-01T08:36:53;100041.66;;;2.81;59.67
77192;BME280;66172;48.526;8.078;2023-03-01T08:39:20;100038.16;;;2.76;60.01
77192;BME280;66172;48.526;8.078;2023-03-01T08:41:46;100044.31;;;2.86;60.47
77192;BME280;66172;48.526;8.078;2023-03-01T08:44:14;100023.94;;;3.39;59.27
77192;BME280;66172;48.526;8.078;2023-03-01T08:46:42;100022.28;;;3.92;58.32
77192;BME280;66172;48.526;8.078;2023-03-01T08:49:11;100020.91;;;3.95;57.32
77192;BME280;66172;48.526;8.078;2023-03-01T08:51:38;100017.47;;;3.89;58.58
77192;BME280;66172;48.526;8.078;2023-03-01T08:54:05;100024.06;;;3.68;58.69
77192;BME280;66172;48.526;8.078;2023-03-01T08:56:31;100017.38;;;3.99;57.70
77192;BME280;66172;48.526;8.078;2023-03-01T08:58:57;100019.94;;;4.43;56.67
77192;BME280;66172;48.526;8.078;2023-03-01T09:01:23;100019.88;;;4.53;56.46
77192;BME280;66172;48.526;8.078;2023-03-01T09:03:49;100014.56;;;4.72;55.83
77192;BME280;66172;48.526;8.078;2023-03-01T09:06:14;100019.31;;;4.80;55.78
77192;BME280;66172;48.526;8.078;2023-03-01T09:08:43;100015.13;;;4.93;55.05
77192;BME280;66172;48.526;8.078;2023-03-01T09:11:12;100006.75;;;5.18;54.65
77192;BME280;66172;48.526;8.078;2023-03-01T09:13:38;100005.34;;;5.21;55.05
77192;BME280;66172;48.526;8.078;2023-03-01T09:16:07;100006.41;;;5.43;54.68
77192;BME280;66172;48.526;8.078;2023-03-01T09:18:33;100009.38;;;6.17;52.89
77192;BME280;66172;48.526;8.078;2023-03-01T09:21:12;99990.88;;;6.56;51.52
77192;BME280;66172;48.526;8.078;2023-03-01T09:23:43;99991.38;;;6.58;50.64
77192;BME280;66172;48.526;8.078;2023-03-01T09:26:14;99991.38;;;7.26;49.47
77192;BME280;66172;48.526;8.078;2023-03-01T09:28:42;99973.72;;;8.00;47.97
77192;BME280;66172;48.526;8.078;2023-03-01T09:31:08;99979.50;;;8.61;45.94
77192;BME280;66172;48.526;8.078;2023-03-01T09:33:34;99981.25;;;9.04;45.39
77192;BME280;66172;48.526;8.078;2023-03-01T09:36:03;99978.94;;;9.37;44.25
77192;BME280;66172;48.526;8.078;2023-03-01T09:38:29;99977.38;;;9.45;43.42
77192;BME280;66172;48.526;8.078;2023-03-01T09:40:56;99969.06;;;10.01;42.30
77192;BME280;66172;48.526;8.078;2023-03-01T09:43:37;99968.84;;;10.41;41.80
77192;BME280;66172;48.526;8.078;2023-03-01T09:46:09;99975.84;;;10.97;40.35
77192;BME280;66172;48.526;8.078;2023-03-01T09:48:43;99968.31;;;11.73;39.18
77192;BME280;66172;48.526;8.078;2023-03-01T09:51:18;99958.81;;;12.45;37.31
77192;BME280;66172;48.526;8.078;2023-03-01T09:53:45;99966.56;;;12.55;37.19
77192;BME280;66172;48.526;8.078;2023-03-01T09:56:20;99967.44;;;12.47;37.64
77192;BME280;66172;48.526;8.078;2023-03-01T09:58:54;99960.66;;;13.38;35.78
77192;BME280;66172;48.526;8.078;2023-03-01T10:01:35;99957.13;;;13.89;34.19
77192;BME280;66172;48.526;8.078;2023-03-01T10:09:38;99954.19;;;13.06;35.81
77192;BME280;66172;48.526;8.078;2023-03-01T10:12:09;99958.03;;;13.41;34.59
77192;BME280;66172;48.526;8.078;2023-03-01T10:15:00;99953.38;;;12.69;36.14
77192;BME280;66172;48.526;8.078;2023-03-01T10:17:36;99947.47;;;13.80;34.69
77192;BME280;66172;48.526;8.078;2023-03-01T10:20:14;99953.50;;;12.85;35.06
77192;BME280;66172;48.526;8.078;2023-03-01T10:22:41;99948.56;;;13.51;34.74
77192;BME280;66172;48.526;8.078;2023-03-01T10:25:13;99949.75;;;14.06;33.54
77192;BME280;66172;48.526;8.078;2023-03-01T10:28:01;99950.41;;;15.24;31.61
77192;BME280;66172;48.526;8.078;2023-03-01T10:30:39;99952.16;;;14.23;33.54
77192;BME280;66172;48.526;8.078;2023-03-01T10:33:35;99938.19;;;14.40;32.35
77192;BME280;66172;48.526;8.078;2023-03-01T10:36:02;99940.16;;;15.02;32.00
77192;BME280;66172;48.526;8.078;2023-03-01T10:38:33;99935.25;;;15.62;30.57
77192;BME280;66172;48.526;8.078;2023-03-01T10:41:12;99928.72;;;15.16;31.11
77192;BME280;66172;48.526;8.078;2023-03-01T10:43:49;99928.31;;;14.98;30.92
77192;BME280;66172;48.526;8.078;2023-03-01T10:46:26;99926.91;;;13.18;34.03
77192;BME280;66172;48.526;8.078;2023-03-01T10:51:38;99915.72;;;14.19;33.08
77192;BME280;66172;48.526;8.078;2023-03-01T10:54:15;99916.75;;;14.73;32.54
77192;BME280;66172;48.526;8.078;2023-03-01T10:56:50;99902.19;;;14.54;32.02
77192;BME280;66172;48.526;8.078;2023-03-01T10:59:30;99897.75;;;14.18;32.42
77192;BME280;66172;48.526;8.078;2023-03-01T11:04:56;99881.34;;;13.62;34.14
77192;BME280;66172;48.526;8.078;2023-03-01T11:07:22;99884.06;;;14.18;32.88
77192;BME280;66172;48.526;8.078;2023-03-01T11:09:48;99896.50;;;13.87;33.43
77192;BME280;66172;48.526;8.078;2023-03-01T11:12:15;99889.31;;;15.05;31.49
77192;BME280;66172;48.526;8.078;2023-03-01T11:14:50;99885.16;;;15.11;31.72
77192;BME280;66172;48.526;8.078;2023-03-01T11:17:28;99874.16;;;14.13;32.79
77192;BME280;66172;48.526;8.078;2023-03-01T11:22:34;99870.16;;;14.38;32.75
77192;BME280;66172;48.526;8.078;2023-03-01T11:25:01;99862.56;;;13.88;32.85
77192;BME280;66172;48.526;8.078;2023-03-01T11:27:31;99860.97;;;14.46;32.49
77192;BME280;66172;48.526;8.078;2023-03-01T11:33:05;99851.25;;;14.18;33.02
77192;BME280;66172;48.526;8.078;2023-03-01T11:35:37;99846.44;;;13.99;33.41
77192;BME280;66172;48.526;8.078;2023-03-01T11:38:26;99836.91;;;13.93;33.01
77192;BME280;66172;48.526;8.078;2023-03-01T11:40:59;99830.44;;;13.14;34.52
77192;BME280;66172;48.526;8.078;2023-03-01T11:46:29;99823.09;;;14.48;33.14
77192;BME280;66172;48.526;8.078;2023-03-01T11:49:24;99831.81;;;14.70;33.08
77192;BME280;66172;48.526;8.078;2023-03-01T11:52:14;99820.44;;;13.62;33.43
77192;BME280;66172;48.526;8.078;2023-03-01T11:54:53;99820.97;;;14.58;33.00
77192;BME280;66172;48.526;8.078;2023-03-01T11:57:43;99824.66;;;15.00;32.07
77192;BME280;66172;48.526;8.078;2023-03-01T12:03:26;99812.09;;;15.95;29.87
77192;BME280;66172;48.526;8.078;2023-03-01T12:09:21;99809.31;;;16.40;29.16
77192;BME280;66172;48.526;8.078;2023-03-01T12:14:59;99800.38;;;14.98;31.65
77192;BME280;66172;48.526;8.078;2023-03-01T12:17:51;99787.75;;;14.94;31.55
77192;BME280;66172;48.526;8.078;2023-03-01T12:20:52;99783.28;;;14.51;32.43
77192;BME280;66172;48.526;8.078;2023-03-01T12:26:26;99769.50;;;13.69;34.04
77192;BME280;66172;48.526;8.078;2023-03-01T12:29:17;99771.75;;;13.36;34.36
77192;BME280;66172;48.526;8.078;2023-03-01T12:32:37;99764.38;;;12.84;34.73
77192;BME280;66172;48.526;8.078;2023-03-01T12:35:20;99764.66;;;12.67;35.29
77192;BME280;66172;48.526;8.078;2023-03-01T12:37:54;99759.75;;;12.73;35.77
77192;BME280;66172;48.526;8.078;2023-03-01T12:40:49;99767.22;;;12.12;36.77
77192;BME280;66172;48.526;8.078;2023-03-01T12:43:36;99748.22;;;11.91;37.33
77192;BME280;66172;48.526;8.078;2023-03-01T12:51:34;99738.56;;;12.18;37.02
77192;BME280;66172;48.526;8.078;2023-03-01T12:54:28;99739.16;;;11.99;37.45
77192;BME280;66172;48.526;8.078;2023-03-01T12:56:58;99727.59;;;11.45;38.13
77192;BME280;66172;48.526;8.078;2023-03-01T12:59:38;99731.22;;;11.49;38.48
77192;BME280;66172;48.526;8.078;2023-03-01T13:04:57;99728.56;;;11.28;38.46
77192;BME280;66172;48.526;8.078;2023-03-01T13:10:33;99718.78;;;11.15;39.35
77192;BME280;66172;48.526;8.078;2023-03-01T13:15:35;99712.72;;;11.54;38.56
77192;BME280;66172;48.526;8.078;2023-03-01T13:26:16;99692.34;;;11.16;39.40
77192;BME280;66172;48.526;8.078;2023-03-01T13:33:47;99687.56;;;10.38;41.47
77192;BME280;66172;48.526;8.078;2023-03-01T13:44:35;99679.16;;;10.52;41.01
77192;BME280;66172;48.526;8.078;2023-03-01T13:49:52;99678.22;;;10.69;40.90
77192;BME280;66172;48.526;8.078;2023-03-01T13:52:43;99678.38;;;10.31;40.78
77192;BME280;66172;48.526;8.078;2023-03-01T13:58:13;99671.50;;;10.66;40.82
77192;BME280;66172;48.526;8.078;2023-03-01T14:00:40;99661.84;;;10.57;40.74
77192;BME280;66172;48.526;8.078;2023-03-01T14:03:15;99663.19;;;10.50;41.17
77192;BME280;66172;48.526;8.078;2023-03-01T14:05:56;99665.22;;;10.74;40.68
77192;BME280;66172;48.526;8.078;2023-03-01T14:08:26;99658.31;;;10.56;40.92
77192;BME280;66172;48.526;8.078;2023-03-01T14:16:16;99658.53;;;9.72;42.60
77192;BME280;66172;48.526;8.078;2023-03-01T14:19:10;99651.44;;;9.50;43.01
77192;BME280;66172;48.526;8.078;2023-03-01T14:21:38;99650.03;;;9.44;43.68
77192;BME280;66172;48.526;8.078;2023-03-01T14:24:04;99650.56;;;9.37;43.53
77192;BME280;66172;48.526;8.078;2023-03-01T14:26:31;99640.81;;;9.74;43.50
77192;BME280;66172;48.526;8.078;2023-03-01T14:28:59;99649.09;;;9.78;43.49
77192;BME280;66172;48.526;8.078;2023-03-01T14:31:38;99646.72;;;9.76;42.53